createdAt,value
2019-02-14T00:00:11.057Z,4.25
2019-02-14T00:00:45.959Z,4.25
2019-02-14T00:01:18.871Z,4.25
2019-02-14T00:01:51.956Z,4.25
2019-02-14T00:02:24.963Z,4.25
2019-02-14T00:02:57.967Z,4.19
2019-02-14T00:03:30.920Z,4.19
2019-02-14T00:04:03.921Z,4.19
2019-02-14T00:04:36.806Z,4.19
2019-02-14T00:05:16.245Z,4.19
2019-02-14T00:05:44.845Z,4.19
2019-02-14T00:06:18.160Z,4.12
2019-02-14T00:06:51.177Z,4.12
2019-02-14T00:07:24.209Z,4.12
2019-02-14T00:07:57.264Z,4.12
2019-02-14T00:08:30.231Z,4.12
2019-02-14T00:09:04.685Z,4.12
2019-02-14T00:09:38.599Z,4.19
2019-02-14T00:10:11.615Z,4.19
2019-02-14T00:10:44.525Z,4.19
2019-02-14T00:11:17.436Z,4.12
2019-02-14T00:11:50.334Z,4.12
2019-02-14T00:12:23.551Z,4.12
2019-02-14T00:12:56.467Z,4.12
2019-02-14T00:13:29.473Z,4.12
2019-02-14T00:14:02.370Z,4.12
2019-02-14T00:14:35.303Z,4.12
2019-02-14T00:15:08.821Z,4.12
2019-02-14T00:15:41.870Z,4.12
2019-02-14T00:16:14.917Z,4.12
2019-02-14T00:16:47.722Z,4.12
2019-02-14T00:17:20.543Z,4.12
2019-02-14T00:17:53.570Z,4.12
2019-02-14T00:18:26.610Z,4.12
2019-02-14T00:18:59.629Z,4.12
2019-02-14T00:19:32.649Z,4.12
2019-02-14T00:20:06.859Z,4.06
2019-02-14T00:20:39.797Z,4.06
2019-02-14T00:21:12.621Z,4.06
2019-02-14T00:21:45.465Z,4.06
2019-02-14T00:22:18.739Z,4.06
2019-02-14T00:22:51.740Z,4.06
2019-02-14T00:23:24.542Z,4.06
2019-02-14T00:23:57.555Z,4.00
2019-02-14T00:24:30.416Z,4.00
2019-02-14T00:25:03.743Z,4.00
2019-02-14T00:25:37.549Z,4.00
2019-02-14T00:26:10.535Z,4.00
2019-02-14T00:26:43.642Z,4.00
2019-02-14T00:27:16.659Z,4.00
2019-02-14T00:27:50.625Z,4.00
2019-02-14T00:28:23.629Z,4.00
2019-02-14T00:28:56.548Z,4.00
2019-02-14T00:29:30.849Z,4.00
2019-02-14T00:30:04.337Z,4.00
2019-02-14T00:30:37.349Z,4.00
2019-02-14T00:31:10.422Z,4.00
2019-02-14T00:31:43.326Z,4.00
2019-02-14T00:32:16.301Z,4.00
2019-02-14T00:32:49.199Z,4.00
2019-02-14T00:33:22.166Z,4.00
2019-02-14T00:33:55.069Z,4.00
2019-02-14T00:34:28.001Z,4.00
2019-02-14T00:35:00.995Z,4.00
2019-02-14T00:35:34.962Z,4.00
2019-02-14T00:36:07.983Z,4.00
2019-02-14T00:36:40.810Z,4.06
2019-02-14T00:37:13.598Z,4.00
2019-02-14T00:37:46.483Z,4.00
2019-02-14T00:38:19.475Z,4.00
2019-02-14T00:38:52.427Z,4.00
2019-02-14T00:39:25.216Z,4.00
2019-02-14T00:39:58.605Z,4.00
2019-02-14T00:40:31.410Z,4.00
2019-02-14T00:41:04.458Z,4.00
2019-02-14T00:41:37.670Z,4.00
2019-02-14T00:42:10.716Z,4.00
2019-02-14T00:42:43.869Z,4.00
2019-02-14T00:43:18.610Z,4.00
2019-02-14T00:43:52.606Z,4.00
2019-02-14T00:44:26.908Z,4.00
2019-02-14T00:44:59.809Z,4.00
2019-02-14T00:45:34.696Z,4.00
2019-02-14T00:46:07.659Z,4.06
2019-02-14T00:46:40.732Z,4.00
2019-02-14T00:47:13.732Z,4.00
2019-02-14T00:47:46.895Z,4.00
2019-02-14T00:48:19.794Z,4.06
2019-02-14T00:48:52.714Z,4.06
2019-02-14T00:49:25.636Z,4.06
2019-02-14T00:49:58.562Z,4.06
2019-02-14T00:50:31.488Z,4.06
2019-02-14T00:51:05.705Z,4.06
2019-02-14T00:51:38.604Z,4.06
2019-02-14T00:52:11.540Z,4.06
2019-02-14T00:52:44.311Z,4.06
2019-02-14T00:53:18.518Z,4.06
2019-02-14T00:53:51.521Z,4.06
2019-02-14T00:54:24.576Z,4.06
2019-02-14T00:54:57.555Z,4.06
2019-02-14T00:55:30.732Z,4.06
2019-02-14T00:56:03.850Z,4.06
2019-02-14T00:56:36.830Z,4.06
2019-02-14T00:57:09.724Z,4.06
2019-02-14T00:57:42.791Z,4.06
2019-02-14T00:58:15.776Z,4.06
2019-02-14T00:58:48.844Z,4.06
2019-02-14T00:59:21.958Z,4.06
2019-02-14T00:59:55.057Z,4.06
2019-02-14T01:00:27.955Z,4.06
2019-02-14T01:01:00.901Z,4.06
2019-02-14T01:01:33.970Z,4.06
2019-02-14T01:02:06.956Z,4.06
2019-02-14T01:02:39.847Z,4.06
2019-02-14T01:03:12.914Z,4.06
2019-02-14T01:03:45.894Z,4.06
2019-02-14T01:04:18.929Z,4.00
2019-02-14T01:04:51.986Z,4.00
2019-02-14T01:05:33.112Z,4.00
2019-02-14T01:05:59.836Z,4.00
2019-02-14T01:06:32.898Z,4.00
2019-02-14T01:07:05.888Z,4.00
2019-02-14T01:07:38.832Z,4.00
2019-02-14T01:08:11.614Z,3.94
2019-02-14T01:08:44.566Z,4.00
2019-02-14T01:09:17.455Z,4.00
2019-02-14T01:09:50.376Z,3.94
2019-02-14T01:10:23.276Z,3.94
2019-02-14T01:10:56.339Z,3.94
2019-02-14T01:11:29.120Z,3.94
2019-02-14T01:12:02.586Z,3.94
2019-02-14T01:12:35.392Z,3.94
2019-02-14T01:13:08.448Z,3.94
2019-02-14T01:13:41.344Z,3.94
2019-02-14T01:14:14.283Z,3.94
2019-02-14T01:14:47.176Z,3.94
2019-02-14T01:15:22.858Z,3.94
2019-02-14T01:15:56.168Z,3.94
2019-02-14T01:16:29.112Z,3.94
2019-02-14T01:17:02.016Z,3.87
2019-02-14T01:17:35.038Z,3.87
2019-02-14T01:18:08.033Z,3.87
2019-02-14T01:18:41.284Z,3.87
2019-02-14T01:19:15.514Z,3.87
2019-02-14T01:19:48.557Z,3.87
2019-02-14T01:20:21.444Z,3.87
2019-02-14T01:20:54.704Z,3.87
2019-02-14T01:21:27.709Z,3.81
2019-02-14T01:22:00.730Z,3.87
2019-02-14T01:22:33.654Z,3.87
2019-02-14T01:23:06.600Z,3.87
2019-02-14T01:23:39.390Z,3.87
2019-02-14T01:24:12.564Z,3.87
2019-02-14T01:24:45.468Z,3.87
2019-02-14T01:25:18.508Z,3.87
2019-02-14T01:25:51.403Z,3.87
2019-02-14T01:26:24.416Z,3.81
2019-02-14T01:26:57.290Z,3.81
2019-02-14T01:27:30.694Z,3.81
2019-02-14T01:28:03.728Z,3.81
2019-02-14T01:28:36.568Z,3.81
2019-02-14T01:29:09.366Z,3.81
2019-02-14T01:29:43.134Z,3.81
2019-02-14T01:30:16.030Z,3.81
2019-02-14T01:30:49.026Z,3.75
2019-02-14T01:31:21.920Z,3.75
2019-02-14T01:31:55.881Z,3.75
2019-02-14T01:32:28.769Z,3.69
2019-02-14T01:33:01.834Z,3.69
2019-02-14T01:33:34.642Z,3.69
2019-02-14T01:34:07.606Z,3.69
2019-02-14T01:34:40.582Z,3.69
2019-02-14T01:35:13.813Z,3.69
2019-02-14T01:35:46.726Z,3.69
2019-02-14T01:36:19.684Z,3.69
2019-02-14T01:36:52.602Z,3.75
2019-02-14T01:37:25.664Z,3.75
2019-02-14T01:37:58.550Z,3.75
2019-02-14T01:38:31.602Z,3.75
2019-02-14T01:39:05.636Z,3.69
2019-02-14T01:39:38.546Z,3.69
2019-02-14T01:40:11.560Z,3.69
2019-02-14T01:40:44.478Z,3.69
2019-02-14T01:41:17.384Z,3.69
2019-02-14T01:41:50.526Z,3.62
2019-02-14T01:42:23.518Z,3.62
2019-02-14T01:42:57.210Z,3.69
2019-02-14T01:43:30.093Z,3.69
2019-02-14T01:44:03.239Z,3.69
2019-02-14T01:44:36.132Z,3.69
2019-02-14T01:45:09.953Z,3.62
2019-02-14T01:45:42.938Z,3.62
2019-02-14T01:46:17.025Z,3.62
2019-02-14T01:46:50.041Z,3.62
2019-02-14T01:47:23.992Z,3.62
2019-02-14T01:47:56.900Z,3.62
2019-02-14T01:48:30.972Z,3.62
2019-02-14T01:49:03.977Z,3.62
2019-02-14T01:49:36.950Z,3.62
2019-02-14T01:50:10.089Z,3.62
2019-02-14T01:50:43.133Z,3.62
2019-02-14T01:51:16.012Z,3.62
2019-02-14T01:51:49.006Z,3.56
2019-02-14T01:52:22.011Z,3.56
2019-02-14T01:52:55.046Z,3.56
2019-02-14T01:53:28.046Z,3.50
2019-02-14T01:54:01.092Z,3.56
2019-02-14T01:54:33.986Z,3.56
2019-02-14T01:55:07.136Z,3.56
2019-02-14T01:55:39.934Z,3.62
2019-02-14T01:56:13.005Z,3.56
2019-02-14T01:56:45.990Z,3.62
2019-02-14T01:57:18.804Z,3.62
2019-02-14T01:57:51.828Z,3.62
2019-02-14T01:58:24.731Z,3.62
2019-02-14T01:58:57.643Z,3.62
2019-02-14T01:59:30.606Z,3.62
2019-02-14T02:00:07.017Z,3.62
2019-02-14T02:00:41.619Z,3.62
2019-02-14T02:01:14.643Z,3.56
2019-02-14T02:01:48.491Z,3.56
2019-02-14T02:02:21.493Z,3.56
2019-02-14T02:02:54.419Z,3.56
2019-02-14T02:03:27.291Z,3.56
2019-02-14T02:04:02.845Z,3.62
2019-02-14T02:04:35.865Z,3.62
2019-02-14T02:05:08.998Z,3.62
2019-02-14T02:05:50.449Z,3.62
2019-02-14T02:06:16.701Z,3.69
2019-02-14T02:06:49.616Z,3.69
2019-02-14T02:07:22.629Z,3.69
2019-02-14T02:07:55.685Z,3.69
2019-02-14T02:08:28.595Z,3.69
2019-02-14T02:09:03.022Z,3.62
2019-02-14T02:09:37.956Z,3.62
2019-02-14T02:10:11.402Z,3.62
2019-02-14T02:10:44.694Z,3.62
2019-02-14T02:11:17.643Z,3.62
2019-02-14T02:11:51.757Z,3.56
2019-02-14T02:12:24.602Z,3.56
2019-02-14T02:12:58.433Z,3.56
2019-02-14T02:13:31.452Z,3.56
2019-02-14T02:14:04.511Z,3.56
2019-02-14T02:14:37.571Z,3.62
2019-02-14T02:15:12.602Z,3.56
2019-02-14T02:15:45.703Z,3.56
2019-02-14T02:16:18.609Z,3.56
2019-02-14T02:16:51.604Z,3.56
2019-02-14T02:17:24.633Z,3.56
2019-02-14T02:17:57.563Z,3.56
2019-02-14T02:18:30.717Z,3.56
2019-02-14T02:19:03.726Z,3.56
2019-02-14T02:19:36.705Z,3.56
2019-02-14T02:20:10.074Z,3.56
2019-02-14T02:20:43.093Z,3.56
2019-02-14T02:21:17.525Z,3.56
2019-02-14T02:21:50.451Z,3.56
2019-02-14T02:22:23.494Z,3.56
2019-02-14T02:22:56.514Z,3.56
2019-02-14T02:23:29.450Z,3.56
2019-02-14T02:24:02.454Z,3.56
2019-02-14T02:24:35.365Z,3.56
2019-02-14T02:25:09.691Z,3.56
2019-02-14T02:25:42.768Z,3.50
2019-02-14T02:26:15.675Z,3.50
2019-02-14T02:26:48.609Z,3.50
2019-02-14T02:27:21.658Z,3.50
2019-02-14T02:27:54.659Z,3.50
2019-02-14T02:28:27.673Z,3.50
2019-02-14T02:29:00.593Z,3.44
2019-02-14T02:29:33.407Z,3.50
2019-02-14T02:30:09.846Z,3.44
2019-02-14T02:30:42.686Z,3.44
2019-02-14T02:31:15.709Z,3.44
2019-02-14T02:31:48.731Z,3.44
2019-02-14T02:32:21.855Z,3.44
2019-02-14T02:32:54.869Z,3.44
2019-02-14T02:33:28.044Z,3.44
2019-02-14T02:34:01.095Z,3.44
2019-02-14T02:34:34.097Z,3.44
2019-02-14T02:35:07.351Z,3.44
2019-02-14T02:35:40.247Z,3.44
2019-02-14T02:36:13.303Z,3.44
2019-02-14T02:36:46.275Z,3.44
2019-02-14T02:37:19.204Z,3.44
2019-02-14T02:37:52.098Z,3.44
2019-02-14T02:38:25.327Z,3.44
2019-02-14T02:38:58.267Z,3.50
2019-02-14T02:39:31.238Z,3.50
2019-02-14T02:40:05.337Z,3.50
2019-02-14T02:40:38.249Z,3.50
2019-02-14T02:41:11.205Z,3.50
2019-02-14T02:41:44.240Z,3.50
2019-02-14T02:42:17.248Z,3.50
2019-02-14T02:42:50.189Z,3.50
2019-02-14T02:43:23.127Z,3.50
2019-02-14T02:43:57.042Z,3.50
2019-02-14T02:44:30.229Z,3.56
2019-02-14T02:45:04.103Z,3.56
2019-02-14T02:45:37.018Z,3.56
2019-02-14T02:46:09.909Z,3.56
2019-02-14T02:46:42.831Z,3.56
2019-02-14T02:47:15.842Z,3.56
2019-02-14T02:47:48.731Z,3.56
2019-02-14T02:48:21.697Z,3.56
2019-02-14T02:48:54.603Z,3.62
2019-02-14T02:49:29.336Z,3.62
2019-02-14T02:50:03.013Z,3.62
2019-02-14T02:50:37.169Z,3.62
2019-02-14T02:51:10.173Z,3.62
2019-02-14T02:51:43.095Z,3.62
2019-02-14T02:52:16.203Z,3.62
2019-02-14T02:52:49.100Z,3.62
2019-02-14T02:53:22.093Z,3.62
2019-02-14T02:53:55.117Z,3.69
2019-02-14T02:54:28.029Z,3.69
2019-02-14T02:55:01.060Z,3.69
2019-02-14T02:55:33.837Z,3.62
2019-02-14T02:56:07.866Z,3.69
2019-02-14T02:56:40.758Z,3.69
2019-02-14T02:57:13.688Z,3.69
2019-02-14T02:57:46.713Z,3.69
2019-02-14T02:58:20.935Z,3.69
2019-02-14T02:58:53.734Z,3.69
2019-02-14T02:59:26.575Z,3.69
2019-02-14T02:59:59.470Z,3.69
2019-02-14T03:00:32.518Z,3.69
2019-02-14T03:01:05.732Z,3.69
2019-02-14T03:01:38.772Z,3.69
2019-02-14T03:02:11.909Z,3.69
2019-02-14T03:02:44.943Z,3.69
2019-02-14T03:03:17.842Z,3.69
2019-02-14T03:03:50.707Z,3.75
2019-02-14T03:04:23.795Z,3.75
2019-02-14T03:04:56.831Z,3.75
2019-02-14T03:05:29.763Z,3.75
2019-02-14T03:06:10.248Z,3.75
2019-02-14T03:06:37.817Z,3.75
2019-02-14T03:07:10.956Z,3.75
2019-02-14T03:07:44.007Z,3.75
2019-02-14T03:08:17.044Z,3.69
2019-02-14T03:08:49.979Z,3.69
2019-02-14T03:09:24.098Z,3.69
2019-02-14T03:09:57.135Z,3.75
2019-02-14T03:10:30.021Z,3.75
2019-02-14T03:11:03.153Z,3.75
2019-02-14T03:11:36.038Z,3.69
2019-02-14T03:12:09.231Z,3.69
2019-02-14T03:12:42.247Z,3.75
2019-02-14T03:13:15.149Z,3.69
2019-02-14T03:13:50.115Z,3.69
2019-02-14T03:14:22.906Z,3.69
2019-02-14T03:14:55.820Z,3.69
2019-02-14T03:15:28.619Z,3.69
2019-02-14T03:16:01.609Z,3.69
2019-02-14T03:16:34.533Z,3.69
2019-02-14T03:17:07.482Z,3.62
2019-02-14T03:17:40.600Z,3.62
2019-02-14T03:18:13.505Z,3.62
2019-02-14T03:18:46.535Z,3.62
2019-02-14T03:19:19.537Z,3.62
2019-02-14T03:19:52.513Z,3.62
2019-02-14T03:20:25.460Z,3.62
2019-02-14T03:20:58.480Z,3.62
2019-02-14T03:21:31.429Z,3.62
2019-02-14T03:22:04.292Z,3.62
2019-02-14T03:22:37.339Z,3.56
2019-02-14T03:23:10.229Z,3.56
2019-02-14T03:23:43.544Z,3.56
2019-02-14T03:24:16.648Z,3.56
2019-02-14T03:24:49.565Z,3.56
2019-02-14T03:25:22.525Z,3.56
2019-02-14T03:25:55.437Z,3.56
2019-02-14T03:26:28.458Z,3.56
2019-02-14T03:27:01.256Z,3.50
2019-02-14T03:27:34.467Z,3.56
2019-02-14T03:28:07.288Z,3.56
2019-02-14T03:28:40.108Z,3.56
2019-02-14T03:29:13.166Z,3.56
2019-02-14T03:29:46.090Z,3.50
2019-02-14T03:30:19.015Z,3.50
2019-02-14T03:30:51.919Z,3.50
2019-02-14T03:31:25.821Z,3.50
2019-02-14T03:31:59.795Z,3.50
2019-02-14T03:32:35.150Z,3.50
2019-02-14T03:33:08.007Z,3.50
2019-02-14T03:33:40.951Z,3.50
2019-02-14T03:34:14.022Z,3.56
2019-02-14T03:34:46.907Z,3.56
2019-02-14T03:35:20.066Z,3.56
2019-02-14T03:35:52.883Z,3.56
2019-02-14T03:36:25.840Z,3.50
2019-02-14T03:36:58.811Z,3.50
2019-02-14T03:37:31.800Z,3.50
2019-02-14T03:38:04.869Z,3.50
2019-02-14T03:38:37.970Z,3.50
2019-02-14T03:39:11.010Z,3.56
2019-02-14T03:39:44.011Z,3.50
2019-02-14T03:40:17.053Z,3.50
2019-02-14T03:40:49.946Z,3.50
2019-02-14T03:41:22.890Z,3.50
2019-02-14T03:41:55.782Z,3.50
2019-02-14T03:42:28.822Z,3.50
2019-02-14T03:43:01.798Z,3.56
2019-02-14T03:43:35.040Z,3.50
2019-02-14T03:44:07.909Z,3.50
2019-02-14T03:44:40.918Z,3.56
2019-02-14T03:45:15.298Z,3.56
2019-02-14T03:45:48.245Z,3.50
2019-02-14T03:46:21.370Z,3.56
2019-02-14T03:46:54.370Z,3.50
2019-02-14T03:47:27.432Z,3.50
2019-02-14T03:48:01.220Z,3.50
2019-02-14T03:48:34.144Z,3.50
2019-02-14T03:49:07.498Z,3.50
2019-02-14T03:49:40.398Z,3.50
2019-02-14T03:50:13.558Z,3.50
2019-02-14T03:50:46.456Z,3.50
2019-02-14T03:51:19.410Z,3.50
2019-02-14T03:51:52.312Z,3.50
2019-02-14T03:52:25.360Z,3.50
2019-02-14T03:52:58.331Z,3.50
2019-02-14T03:53:31.294Z,3.50
2019-02-14T03:54:04.318Z,3.50
2019-02-14T03:54:38.840Z,3.56
2019-02-14T03:55:11.854Z,3.56
2019-02-14T03:55:44.898Z,3.56
2019-02-14T03:56:17.889Z,3.56
2019-02-14T03:56:50.908Z,3.56
2019-02-14T03:57:24.008Z,3.56
2019-02-14T03:57:56.874Z,3.56
2019-02-14T03:58:29.664Z,3.56
2019-02-14T03:59:02.730Z,3.50
2019-02-14T03:59:35.736Z,3.56
2019-02-14T04:00:13.640Z,3.56
2019-02-14T04:00:46.605Z,3.56
2019-02-14T04:01:19.570Z,3.56
2019-02-14T04:01:52.490Z,3.56
2019-02-14T04:02:25.432Z,3.56
2019-02-14T04:02:58.318Z,3.56
2019-02-14T04:03:32.372Z,3.56
2019-02-14T04:04:05.488Z,3.56
2019-02-14T04:04:38.544Z,3.50
2019-02-14T04:05:11.645Z,3.50
2019-02-14T04:05:44.686Z,3.50
2019-02-14T04:06:26.990Z,3.50
2019-02-14T04:06:53.484Z,3.50
2019-02-14T04:07:26.425Z,3.50
2019-02-14T04:07:59.985Z,3.50
2019-02-14T04:08:33.126Z,3.50
2019-02-14T04:09:07.774Z,3.50
2019-02-14T04:09:40.868Z,3.50
2019-02-14T04:10:14.004Z,3.50
2019-02-14T04:10:46.962Z,3.50
2019-02-14T04:11:20.014Z,3.50
2019-02-14T04:11:53.016Z,3.50
2019-02-14T04:12:27.766Z,3.50
2019-02-14T04:13:00.753Z,3.50
2019-02-14T04:13:33.845Z,3.50
2019-02-14T04:14:07.800Z,3.50
2019-02-14T04:14:40.802Z,3.44
2019-02-14T04:15:15.411Z,3.44
2019-02-14T04:15:48.750Z,3.44
2019-02-14T04:16:21.735Z,3.44
2019-02-14T04:16:54.706Z,3.44
2019-02-14T04:17:27.607Z,3.44
2019-02-14T04:18:00.562Z,3.44
2019-02-14T04:18:33.561Z,3.44
2019-02-14T04:19:06.928Z,3.44
2019-02-14T04:19:39.824Z,3.44
2019-02-14T04:20:13.138Z,3.44
2019-02-14T04:20:45.998Z,3.44
2019-02-14T04:21:18.832Z,3.44
2019-02-14T04:21:51.797Z,3.44
2019-02-14T04:22:24.839Z,3.44
2019-02-14T04:22:57.908Z,3.44
2019-02-14T04:23:30.832Z,3.37
2019-02-14T04:24:03.904Z,3.37
2019-02-14T04:24:36.953Z,3.37
2019-02-14T04:25:10.174Z,3.37
2019-02-14T04:25:43.255Z,3.37
2019-02-14T04:26:16.375Z,3.37
2019-02-14T04:26:51.002Z,3.37
2019-02-14T04:27:24.111Z,3.37
2019-02-14T04:27:57.280Z,3.37
2019-02-14T04:28:30.287Z,3.37
2019-02-14T04:29:03.362Z,3.37
2019-02-14T04:29:36.265Z,3.37
2019-02-14T04:30:10.242Z,3.37
2019-02-14T04:30:44.164Z,3.37
2019-02-14T04:31:17.235Z,3.37
2019-02-14T04:31:50.041Z,3.31
2019-02-14T04:32:22.957Z,3.31
2019-02-14T04:32:55.751Z,3.31
2019-02-14T04:33:28.602Z,3.31
2019-02-14T04:34:01.530Z,3.31
2019-02-14T04:34:34.348Z,3.25
2019-02-14T04:35:07.400Z,3.25
2019-02-14T04:35:41.296Z,3.25
2019-02-14T04:36:14.143Z,3.25
2019-02-14T04:36:47.162Z,3.25
2019-02-14T04:37:20.192Z,3.25
2019-02-14T04:37:53.044Z,3.25
2019-02-14T04:38:25.865Z,3.25
2019-02-14T04:38:58.683Z,3.25
2019-02-14T04:39:31.671Z,3.25
2019-02-14T04:40:07.273Z,3.19
2019-02-14T04:40:40.274Z,3.19
2019-02-14T04:41:13.210Z,3.19
2019-02-14T04:41:46.269Z,3.12
2019-02-14T04:42:19.166Z,3.12
2019-02-14T04:42:52.224Z,3.12
2019-02-14T04:43:25.705Z,3.12
2019-02-14T04:43:58.623Z,3.12
2019-02-14T04:44:31.778Z,3.12
2019-02-14T04:45:05.499Z,3.12
2019-02-14T04:45:38.429Z,3.12
2019-02-14T04:46:11.433Z,3.12
2019-02-14T04:46:45.348Z,3.12
2019-02-14T04:47:18.175Z,3.12
2019-02-14T04:47:51.091Z,3.12
2019-02-14T04:48:24.109Z,3.12
2019-02-14T04:48:58.453Z,3.12
2019-02-14T04:49:31.382Z,3.06
2019-02-14T04:50:06.531Z,3.06
2019-02-14T04:50:40.597Z,3.06
2019-02-14T04:51:13.795Z,3.06
2019-02-14T04:51:46.887Z,3.06
2019-02-14T04:52:19.847Z,3.06
2019-02-14T04:52:52.895Z,3.06
2019-02-14T04:53:25.839Z,3.06
2019-02-14T04:53:58.719Z,3.06
2019-02-14T04:54:31.863Z,3.06
2019-02-14T04:55:05.733Z,3.06
2019-02-14T04:55:40.309Z,3.00
2019-02-14T04:56:13.363Z,3.06
2019-02-14T04:56:46.403Z,3.06
2019-02-14T04:57:19.373Z,3.12
2019-02-14T04:57:52.413Z,3.12
2019-02-14T04:58:25.445Z,3.12
2019-02-14T04:58:58.517Z,3.12
2019-02-14T04:59:31.475Z,3.12
2019-02-14T05:00:06.211Z,3.12
2019-02-14T05:00:39.020Z,3.12
2019-02-14T05:01:11.967Z,3.12
2019-02-14T05:01:44.909Z,3.12
2019-02-14T05:02:17.856Z,3.12
2019-02-14T05:02:50.907Z,3.12
2019-02-14T05:03:24.889Z,3.12
2019-02-14T05:03:57.867Z,3.12
2019-02-14T05:04:30.910Z,3.12
2019-02-14T05:05:04.729Z,3.12
2019-02-14T05:05:37.709Z,3.12
2019-02-14T05:06:10.648Z,3.12
2019-02-14T05:06:44.486Z,3.12
2019-02-14T05:07:17.743Z,3.06
2019-02-14T05:07:51.597Z,3.06
2019-02-14T05:08:24.561Z,3.06
2019-02-14T05:08:57.415Z,3.06
2019-02-14T05:09:30.400Z,3.06
2019-02-14T05:10:04.426Z,3.12
2019-02-14T05:10:37.427Z,3.12
2019-02-14T05:11:10.439Z,3.12
2019-02-14T05:11:43.457Z,3.12
2019-02-14T05:12:16.437Z,3.06
2019-02-14T05:12:49.513Z,3.06
2019-02-14T05:13:22.364Z,3.06
2019-02-14T05:13:56.835Z,3.06
2019-02-14T05:14:29.919Z,3.06
2019-02-14T05:15:03.063Z,3.06
2019-02-14T05:15:36.005Z,3.06
2019-02-14T05:16:09.103Z,3.06
2019-02-14T05:16:43.053Z,3.06
2019-02-14T05:17:16.106Z,3.06
2019-02-14T05:17:49.964Z,3.00
2019-02-14T05:18:22.923Z,3.00
2019-02-14T05:18:55.913Z,3.00
2019-02-14T05:19:28.785Z,3.00
2019-02-14T05:20:01.839Z,3.00
2019-02-14T05:20:36.388Z,3.00
2019-02-14T05:21:09.435Z,3.00
2019-02-14T05:21:42.395Z,3.00
2019-02-14T05:22:15.347Z,2.94
2019-02-14T05:22:48.390Z,2.94
2019-02-14T05:23:21.337Z,2.94
2019-02-14T05:23:54.297Z,2.94
2019-02-14T05:24:27.134Z,2.94
2019-02-14T05:25:00.297Z,2.87
2019-02-14T05:25:33.194Z,2.94
2019-02-14T05:26:06.027Z,2.87
2019-02-14T05:26:39.307Z,2.87
2019-02-14T05:27:12.209Z,2.87
2019-02-14T05:27:45.157Z,2.87
2019-02-14T05:28:18.143Z,2.87
2019-02-14T05:28:51.139Z,2.87
2019-02-14T05:29:23.939Z,2.87
2019-02-14T05:29:57.015Z,2.87
2019-02-14T05:30:29.993Z,2.81
2019-02-14T05:31:03.156Z,2.81
2019-02-14T05:31:37.574Z,2.81
2019-02-14T05:32:10.858Z,2.81
2019-02-14T05:32:44.845Z,2.75
2019-02-14T05:33:17.851Z,2.81
2019-02-14T05:33:50.754Z,2.81
2019-02-14T05:34:23.914Z,2.75
2019-02-14T05:34:56.724Z,2.75
2019-02-14T05:35:29.753Z,2.75
2019-02-14T05:36:02.831Z,2.75
2019-02-14T05:36:35.800Z,2.75
2019-02-14T05:37:09.819Z,2.75
2019-02-14T05:37:42.775Z,2.75
2019-02-14T05:38:15.780Z,2.75
2019-02-14T05:38:48.862Z,2.75
2019-02-14T05:39:21.862Z,2.75
2019-02-14T05:39:54.799Z,2.75
2019-02-14T05:40:27.695Z,2.75
2019-02-14T05:41:00.760Z,2.75
2019-02-14T05:41:33.552Z,2.75
2019-02-14T05:42:07.626Z,2.75
2019-02-14T05:42:40.626Z,2.69
2019-02-14T05:43:13.638Z,2.69
2019-02-14T05:43:46.423Z,2.69
2019-02-14T05:44:19.277Z,2.69
2019-02-14T05:44:52.250Z,2.69
2019-02-14T05:45:25.290Z,2.69
2019-02-14T05:45:58.196Z,2.69
2019-02-14T05:46:31.044Z,2.69
2019-02-14T05:47:03.931Z,2.69
2019-02-14T05:47:36.990Z,2.62
2019-02-14T05:48:09.782Z,2.62
2019-02-14T05:48:42.678Z,2.62
2019-02-14T05:49:15.616Z,2.62
2019-02-14T05:49:48.587Z,2.62
2019-02-14T05:50:21.579Z,2.62
2019-02-14T05:50:54.549Z,2.62
2019-02-14T05:51:27.480Z,2.62
2019-02-14T05:52:00.520Z,2.62
2019-02-14T05:52:33.518Z,2.62
2019-02-14T05:53:07.955Z,2.62
2019-02-14T05:53:40.941Z,2.62
2019-02-14T05:54:13.903Z,2.62
2019-02-14T05:54:46.922Z,2.62
2019-02-14T05:55:19.849Z,2.62
2019-02-14T05:55:52.748Z,2.62
2019-02-14T05:56:25.684Z,2.56
2019-02-14T05:56:58.484Z,2.56
2019-02-14T05:57:32.450Z,2.56
2019-02-14T05:58:05.338Z,2.56
2019-02-14T05:58:39.492Z,2.50
2019-02-14T05:59:12.494Z,2.50
2019-02-14T05:59:45.415Z,2.50
2019-02-14T06:00:19.270Z,2.50
2019-02-14T06:00:52.476Z,2.44
2019-02-14T06:01:25.449Z,2.44
2019-02-14T06:01:58.546Z,2.44
2019-02-14T06:02:32.229Z,2.44
2019-02-14T06:03:05.454Z,2.37
2019-02-14T06:03:38.430Z,2.37
2019-02-14T06:04:11.270Z,2.37
2019-02-14T06:04:44.154Z,2.31
2019-02-14T06:05:17.290Z,2.37
2019-02-14T06:05:50.080Z,2.31
2019-02-14T06:06:23.010Z,2.31
2019-02-14T06:07:00.914Z,2.31
2019-02-14T06:07:30.651Z,2.31
2019-02-14T06:08:03.537Z,2.31
2019-02-14T06:08:36.446Z,2.25
2019-02-14T06:09:09.337Z,2.25
2019-02-14T06:09:42.256Z,2.25
2019-02-14T06:10:15.256Z,2.25
2019-02-14T06:10:48.538Z,2.25
2019-02-14T06:11:21.319Z,2.19
2019-02-14T06:11:54.234Z,2.19
2019-02-14T06:12:27.047Z,2.19
2019-02-14T06:12:59.997Z,2.19
2019-02-14T06:13:33.000Z,2.12
2019-02-14T06:14:05.928Z,2.12
2019-02-14T06:14:38.958Z,2.12
2019-02-14T06:15:12.072Z,2.12
2019-02-14T06:15:45.004Z,2.12
2019-02-14T06:16:17.980Z,2.06
2019-02-14T06:16:50.866Z,2.06
2019-02-14T06:17:23.758Z,2.06
2019-02-14T06:17:56.563Z,2.00
2019-02-14T06:18:29.500Z,2.00
2019-02-14T06:19:02.546Z,2.00
2019-02-14T06:19:36.435Z,2.00
2019-02-14T06:20:09.596Z,2.00
2019-02-14T06:20:42.432Z,1.94
2019-02-14T06:21:15.459Z,1.94
2019-02-14T06:21:48.895Z,1.94
2019-02-14T06:22:21.769Z,1.94
2019-02-14T06:22:55.108Z,1.94
2019-02-14T06:23:28.008Z,1.94
2019-02-14T06:24:00.911Z,1.94
2019-02-14T06:24:33.700Z,1.94
2019-02-14T06:25:06.814Z,2.00
2019-02-14T06:25:39.691Z,2.00
2019-02-14T06:26:12.720Z,1.94
2019-02-14T06:26:45.641Z,1.94
2019-02-14T06:27:18.994Z,1.94
2019-02-14T06:27:51.869Z,1.87
2019-02-14T06:28:24.886Z,1.87
2019-02-14T06:28:57.834Z,1.87
2019-02-14T06:29:31.204Z,1.87
2019-02-14T06:30:06.720Z,1.81
2019-02-14T06:30:41.165Z,1.81
2019-02-14T06:31:13.958Z,1.81
2019-02-14T06:31:46.776Z,1.75
2019-02-14T06:32:19.691Z,1.75
2019-02-14T06:32:54.270Z,1.75
2019-02-14T06:33:28.208Z,1.69
2019-02-14T06:34:01.314Z,1.69
2019-02-14T06:34:34.212Z,1.69
2019-02-14T06:35:08.682Z,1.69
2019-02-14T06:35:41.567Z,1.69
2019-02-14T06:36:14.584Z,1.62
2019-02-14T06:36:47.582Z,1.62
2019-02-14T06:37:20.521Z,1.62
2019-02-14T06:37:53.521Z,1.62
2019-02-14T06:38:26.360Z,1.62
2019-02-14T06:38:59.172Z,1.56
2019-02-14T06:39:32.064Z,1.56
2019-02-14T06:40:06.920Z,1.50
2019-02-14T06:40:41.568Z,1.50
2019-02-14T06:41:14.569Z,1.50
2019-02-14T06:41:47.486Z,1.56
2019-02-14T06:42:20.404Z,1.56
2019-02-14T06:42:53.433Z,1.56
2019-02-14T06:43:26.428Z,1.56
2019-02-14T06:43:59.610Z,1.50
2019-02-14T06:44:32.410Z,1.50
2019-02-14T06:45:08.068Z,1.50
2019-02-14T06:45:40.974Z,1.50
2019-02-14T06:46:14.083Z,1.50
2019-02-14T06:46:47.058Z,1.50
2019-02-14T06:47:19.912Z,1.44
2019-02-14T06:47:52.965Z,1.50
2019-02-14T06:48:27.562Z,1.50
2019-02-14T06:49:00.542Z,1.44
2019-02-14T06:49:33.539Z,1.44
2019-02-14T06:50:06.756Z,1.44
2019-02-14T06:50:39.806Z,1.37
2019-02-14T06:51:12.807Z,1.37
2019-02-14T06:51:45.718Z,1.31
2019-02-14T06:52:18.536Z,1.31
2019-02-14T06:52:51.584Z,1.31
2019-02-14T06:53:24.479Z,1.31
2019-02-14T06:53:57.505Z,1.31
2019-02-14T06:54:30.333Z,1.25
2019-02-14T06:55:03.590Z,1.25
2019-02-14T06:55:36.669Z,1.25
2019-02-14T06:56:09.748Z,1.25
2019-02-14T06:56:43.768Z,1.19
2019-02-14T06:57:16.610Z,1.19
2019-02-14T06:57:49.522Z,1.19
2019-02-14T06:58:22.472Z,1.19
2019-02-14T06:58:55.404Z,1.12
2019-02-14T06:59:28.522Z,1.12
2019-02-14T07:00:01.522Z,1.12
2019-02-14T07:00:34.611Z,1.12
2019-02-14T07:01:07.628Z,1.12
2019-02-14T07:01:41.034Z,1.12
2019-02-14T07:02:14.170Z,1.12
2019-02-14T07:02:47.276Z,1.06
2019-02-14T07:03:20.186Z,1.06
2019-02-14T07:03:53.536Z,1.06
2019-02-14T07:04:26.570Z,1.06
2019-02-14T07:04:59.560Z,1.06
2019-02-14T07:05:32.597Z,1.06
2019-02-14T07:06:05.543Z,1.06
2019-02-14T07:06:38.633Z,1.06
2019-02-14T07:07:18.285Z,1.06
2019-02-14T07:07:46.485Z,1.06
2019-02-14T07:08:19.521Z,1.06
2019-02-14T07:08:52.558Z,1.06
2019-02-14T07:09:25.467Z,1.06
2019-02-14T07:09:58.485Z,1.00
2019-02-14T07:10:32.658Z,1.00
2019-02-14T07:11:06.837Z,1.00
2019-02-14T07:11:39.871Z,1.00
2019-02-14T07:12:12.974Z,1.00
2019-02-14T07:12:46.013Z,1.00
2019-02-14T07:13:18.985Z,1.00
2019-02-14T07:13:52.102Z,1.00
2019-02-14T07:14:25.147Z,1.00
2019-02-14T07:14:58.129Z,1.00
2019-02-14T07:15:31.333Z,1.00
2019-02-14T07:16:06.019Z,1.00
2019-02-14T07:16:38.984Z,1.00
2019-02-14T07:17:12.033Z,1.00
2019-02-14T07:17:45.103Z,1.00
2019-02-14T07:18:18.059Z,1.00
2019-02-14T07:18:51.139Z,1.00
2019-02-14T07:19:24.125Z,1.00
2019-02-14T07:19:57.083Z,1.06
2019-02-14T07:20:29.960Z,1.06
2019-02-14T07:21:04.547Z,1.06
2019-02-14T07:21:37.573Z,1.12